Time;durP1;ratioP1;P1;durP2;ratioP2;P2;SDS_P1;SDS_P2;PMS_P1;PMS_P2;Temp;Humidity;BMP_temperature;BMP_pressure;BME280_temperature;BME280_humidity;BME280_pressure;Samples;Min_cycle;Max_cycle;Signal;HPM_P1;HPM_P2
2021/06/10 00:02:02;;;;;;;5.97;5.20;;;18.70;71.70;;;;;;5017557;28;20025;-34
2021/06/10 00:04:28;;;;;;;6.15;4.88;;;18.70;71.70;;;;;;5017210;28;20425;-37
2021/06/10 00:06:54;;;;;;;6.63;5.45;;;18.70;72.40;;;;;;5017470;28;20337;-37
2021/06/10 00:09:19;;;;;;;7.60;5.80;;;18.70;72.10;;;;;;5017443;28;20113;-38
2021/06/10 00:11:45;;;;;;;7.32;5.68;;;18.60;72.30;;;;;;5017243;28;20070;-38
2021/06/10 00:14:12;;;;;;;5.55;4.93;;;18.60;72.50;;;;;;5017336;28;20029;-34
2021/06/10 00:16:38;;;;;;;10.40;6.00;;;18.60;72.60;;;;;;5016894;28;20049;-34
2021/06/10 00:19:04;;;;;;;6.28;5.68;;;18.60;73.00;;;;;;5017220;28;20034;-34
2021/06/10 00:21:29;;;;;;;9.23;6.75;;;18.60;73.00;;;;;;5017106;28;20117;-37
2021/06/10 00:23:55;;;;;;;8.85;6.50;;;18.60;73.30;;;;;;5016217;28;20074;-37
2021/06/10 00:26:21;;;;;;;8.73;6.70;;;18.60;73.50;;;;;;5016735;28;20164;-36
2021/06/10 00:28:46;;;;;;;12.32;7.38;;;18.50;73.70;;;;;;5017249;28;20018;-35
2021/06/10 00:31:12;;;;;;;11.60;7.05;;;18.50;73.90;;;;;;5017112;28;20345;-34
2021/06/10 00:33:38;;;;;;;6.70;5.80;;;18.50;74.00;;;;;;5016853;28;20029;-35
2021/06/10 00:36:04;;;;;;;8.27;7.45;;;18.50;74.10;;;;;;5017014;28;20428;-34
2021/06/10 00:38:29;;;;;;;10.32;7.10;;;18.40;74.30;;;;;;5016479;28;20068;-34
2021/06/10 00:40:55;;;;;;;9.15;6.75;;;18.40;74.60;;;;;;5016873;28;20034;-37
2021/06/10 00:43:20;;;;;;;9.75;7.38;;;18.30;74.70;;;;;;5016415;28;20333;-34
2021/06/10 00:45:46;;;;;;;8.38;7.07;;;18.30;75.10;;;;;;5017012;28;20120;-38
2021/06/10 00:48:12;;;;;;;8.35;7.00;;;18.30;75.30;;;;;;5016340;28;20061;-34
2021/06/10 00:50:44;;;;;;;9.00;7.22;;;18.20;75.50;;;;;;5016843;28;20374;-38
2021/06/10 00:53:20;;;;;;;10.63;7.22;;;18.20;75.70;;;;;;5016084;28;20026;-34
2021/06/10 00:55:54;;;;;;;11.07;8.18;;;18.20;75.90;;;;;;5016957;28;20125;-35
2021/06/10 00:58:20;;;;;;;9.68;8.27;;;18.20;76.30;;;;;;5015622;28;20081;-37
2021/06/10 01:00:46;;;;;;;8.70;7.78;;;18.10;76.30;;;;;;5016752;28;20138;-38
2021/06/10 01:03:12;;;;;;;11.95;8.23;;;18.10;76.30;;;;;;5015803;28;20072;-37
2021/06/10 01:05:40;;;;;;;10.88;8.52;;;18.10;76.70;;;;;;5016731;28;20437;-37
2021/06/10 01:08:10;;;;;;;13.00;8.13;;;18.10;76.90;;;;;;5015714;28;20329;-37
2021/06/10 01:10:53;;;;;;;9.27;8.38;;;18.10;76.80;;;;;;5016108;28;20037;-37
2021/06/10 01:14:11;;;;;;;9.95;8.20;;;18.00;76.90;;;;;;5015861;28;20079;-35
2021/06/10 01:16:40;;;;;;;10.48;8.48;;;18.10;76.90;;;;;;5002886;28;20362;-37
2021/06/10 01:19:37;;;;;;;14.80;9.82;;;18.00;77.30;;;;;;5015752;28;20034;-37
2021/06/10 01:22:05;;;;;;;18.25;9.73;;;18.00;77.80;;;;;;5015839;28;20066;-37
2021/06/10 01:24:45;;;;;;;10.25;8.98;;;18.00;78.20;;;;;;5016005;28;20037;-34
2021/06/10 01:27:19;;;;;;;12.23;9.43;;;17.90;78.10;;;;;;5015864;28;20037;-34
2021/06/10 01:29:50;;;;;;;9.85;8.85;;;18.00;78.20;;;;;;5015712;28;20038;-37
2021/06/10 01:32:17;;;;;;;12.43;10.10;;;18.00;78.40;;;;;;5015732;28;20196;-37
2021/06/10 01:34:43;;;;;;;10.63;9.15;;;18.00;78.60;;;;;;5015634;28;20025;-34
2021/06/10 01:37:09;;;;;;;10.55;9.45;;;18.00;78.40;;;;;;5015512;28;20053;-34
2021/06/10 01:39:36;;;;;;;13.23;9.75;;;18.00;78.50;;;;;;5015854;28;20030;-38
2021/06/10 01:42:02;;;;;;;10.93;9.25;;;18.00;78.70;;;;;;5016064;28;20076;-37
2021/06/10 01:44:29;;;;;;;13.15;9.30;;;18.00;78.70;;;;;;5015723;28;20029;-37
2021/06/10 01:46:55;;;;;;;12.27;10.18;;;18.00;78.80;;;;;;5015798;28;20092;-34
2021/06/10 01:49:21;;;;;;;12.63;10.48;;;18.10;79.00;;;;;;5015824;28;20033;-34
2021/06/10 01:51:48;;;;;;;11.43;10.23;;;18.10;79.20;;;;;;5015786;28;20034;-37
2021/06/10 01:54:15;;;;;;;13.20;11.38;;;18.10;79.00;;;;;;5015627;28;20632;-37
2021/06/10 01:56:42;;;;;;;15.68;10.82;;;18.10;79.30;;;;;;5015813;28;20141;-37
2021/06/10 01:59:08;;;;;;;19.85;10.55;;;18.10;79.30;;;;;;5015520;28;20036;-37
2021/06/10 02:01:35;;;;;;;14.30;11.65;;;18.10;79.40;;;;;;5015452;28;20038;-36
2021/06/10 02:04:02;;;;;;;21.40;11.57;;;18.10;79.50;;;;;;5015707;28;20125;-36
2021/06/10 02:06:30;;;;;;;11.55;10.25;;;18.10;79.60;;;;;;5015519;28;20030;-34
2021/06/10 02:08:56;;;;;;;17.90;11.40;;;18.10;79.40;;;;;;5015452;28;20026;-37
2021/06/10 02:11:22;;;;;;;10.95;9.85;;;18.10;80.20;;;;;;5015262;28;20034;-36
2021/06/10 02:13:49;;;;;;;12.35;10.77;;;18.10;79.60;;;;;;5015790;28;20429;-37
2021/06/10 02:16:16;;;;;;;13.20;10.75;;;18.10;79.60;;;;;;5015499;28;20314;-34
2021/06/10 02:18:46;;;;;;;13.40;10.88;;;18.10;79.80;;;;;;5015255;28;20064;-37
2021/06/10 02:21:13;;;;;;;14.82;11.07;;;18.10;79.90;;;;;;5015629;28;20034;-34
2021/06/10 02:23:40;;;;;;;14.68;11.77;;;18.10;80.00;;;;;;5015403;28;20476;-34
2021/06/10 02:26:07;;;;;;;15.90;12.40;;;18.10;80.30;;;;;;5015534;28;20411;-37
2021/06/10 02:28:34;;;;;;;13.65;11.65;;;18.10;80.30;;;;;;5015091;28;20022;-36
2021/06/10 02:31:01;;;;;;;13.35;11.13;;;18.10;80.40;;;;;;5015680;28;20034;-34
2021/06/10 02:33:27;;;;;;;13.55;11.20;;;18.10;80.20;;;;;;5014799;28;20033;-37
2021/06/10 02:35:53;;;;;;;11.88;10.27;;;18.10;80.20;;;;;;5015801;28;20421;-34
2021/06/10 02:38:21;;;;;;;12.18;10.80;;;18.20;80.10;;;;;;5014991;28;20485;-38
2021/06/10 02:40:51;;;;;;;15.00;11.60;;;18.20;80.20;;;;;;5015416;28;20038;-35
2021/06/10 02:43:17;;;;;;;16.00;12.10;;;18.20;80.20;;;;;;5014988;28;20492;-37
2021/06/10 02:45:45;;;;;;;17.30;12.88;;;18.30;80.30;;;;;;5015655;28;20133;-37
2021/06/10 02:48:12;;;;;;;14.95;12.73;;;18.20;80.50;;;;;;5017685;28;20033;-34
2021/06/10 02:50:39;;;;;;;15.68;13.27;;;18.20;80.60;;;;;;5018864;28;20414;-34
2021/06/10 02:53:06;;;;;;;14.38;12.07;;;18.30;80.70;;;;;;5018347;28;20318;-37
2021/06/10 02:55:36;;;;;;;13.52;11.95;;;18.20;80.90;;;;;;5018934;28;20314;-34
2021/06/10 02:58:03;;;;;;;14.07;11.88;;;18.20;80.80;;;;;;5017928;28;20133;-34
2021/06/10 03:00:33;;;;;;;14.50;11.73;;;18.20;81.10;;;;;;5018550;28;20022;-37
2021/06/10 03:03:00;;;;;;;19.88;13.27;;;18.30;81.00;;;;;;5018286;28;20422;-34
2021/06/10 03:05:28;;;;;;;14.48;12.32;;;18.30;81.10;;;;;;5018807;28;20364;-37
2021/06/10 03:07:55;;;;;;;14.77;13.10;;;18.30;80.90;;;;;;5017903;28;20034;-34
2021/06/10 03:10:27;;;;;;;14.35;11.73;;;18.30;81.00;;;;;;5018389;28;20026;-38
2021/06/10 03:12:54;;;;;;;16.67;11.70;;;18.30;80.90;;;;;;5018179;28;20026;-34
2021/06/10 03:15:21;;;;;;;17.60;12.65;;;18.30;81.00;;;;;;5018281;28;20337;-35
2021/06/10 03:17:48;;;;;;;16.52;13.57;;;18.30;81.10;;;;;;5017592;28;20059;-37
2021/06/10 03:20:14;;;;;;;14.38;12.27;;;18.40;81.20;;;;;;5018281;28;20026;-34
2021/06/10 03:22:40;;;;;;;16.10;12.68;;;18.40;80.90;;;;;;5017539;28;20040;-36
2021/06/10 03:25:08;;;;;;;14.75;12.57;;;18.40;81.00;;;;;;5018154;28;20130;-35
2021/06/10 03:27:34;;;;;;;13.05;11.57;;;18.40;80.90;;;;;;5018025;28;20124;-37
2021/06/10 03:30:01;;;;;;;16.13;12.77;;;18.50;80.80;;;;;;5018600;28;20022;-34
2021/06/10 03:32:27;;;;;;;16.02;12.23;;;18.50;80.90;;;;;;5018086;28;20038;-38
2021/06/10 03:34:55;;;;;;;21.70;13.65;;;18.60;80.70;;;;;;5018345;28;20025;-36
2021/06/10 03:37:23;;;;;;;15.85;12.68;;;18.60;80.80;;;;;;5017656;28;20030;-34
2021/06/10 03:39:50;;;;;;;16.40;12.27;;;18.60;80.60;;;;;;5018166;28;20026;-37
2021/06/10 03:42:18;;;;;;;17.95;13.82;;;18.70;80.70;;;;;;5017763;28;20444;-37
2021/06/10 03:44:45;;;;;;;15.48;12.52;;;18.70;80.60;;;;;;5017486;28;20064;-34
2021/06/10 03:47:17;;;;;;;16.70;13.52;;;18.70;80.50;;;;;;5017239;28;20048;-34
2021/06/10 03:49:43;;;;;;;26.50;13.43;;;18.80;80.40;;;;;;5018034;28;20018;-38
2021/06/10 03:52:09;;;;;;;17.50;13.73;;;18.80;80.30;;;;;;5017560;28;20041;-37
2021/06/10 03:54:36;;;;;;;15.45;12.93;;;18.80;80.20;;;;;;5017563;28;20018;-37
2021/06/10 03:57:02;;;;;;;14.70;12.27;;;18.80;80.30;;;;;;5017676;28;20069;-34
2021/06/10 03:59:27;;;;;;;14.05;11.73;;;18.80;80.10;;;;;;5017547;28;20021;-34
2021/06/10 04:01:53;;;;;;;14.43;11.57;;;18.80;80.10;;;;;;5017408;28;20034;-39
2021/06/10 04:04:19;;;;;;;17.02;13.73;;;18.90;80.00;;;;;;5017287;28;20076;-37
2021/06/10 04:06:46;;;;;;;14.20;12.43;;;18.90;80.00;;;;;;5017212;28;20030;-37
2021/06/10 04:09:12;;;;;;;16.17;14.38;;;18.90;79.90;;;;;;5017604;28;20022;-37
2021/06/10 04:11:39;;;;;;;16.85;13.18;;;18.90;79.80;;;;;;5017372;28;20092;-34
2021/06/10 04:14:05;;;;;;;17.10;12.02;;;19.00;79.90;;;;;;5017372;28;20064;-35
2021/06/10 04:16:31;;;;;;;13.07;11.07;;;19.00;79.90;;;;;;5016723;28;20034;-37
2021/06/10 04:18:57;;;;;;;17.92;12.13;;;19.00;79.80;;;;;;5016859;28;20421;-34
2021/06/10 04:21:23;;;;;;;14.38;11.48;;;19.00;79.70;;;;;;5016307;28;20033;-37
2021/06/10 04:23:49;;;;;;;28.67;14.27;;;19.10;79.60;;;;;;5017028;28;20025;-34
2021/06/10 04:26:16;;;;;;;21.98;13.23;;;19.10;79.50;;;;;;5016911;28;20117;-34
2021/06/10 04:28:45;;;;;;;16.80;12.35;;;19.10;79.40;;;;;;5017022;28;20034;-37
2021/06/10 04:31:12;;;;;;;14.45;12.43;;;19.10;79.60;;;;;;5017119;28;20074;-38
2021/06/10 04:33:38;;;;;;;21.23;14.02;;;19.10;79.60;;;;;;5016787;28;20287;-34
2021/06/10 04:36:04;;;;;;;14.77;12.90;;;19.10;79.60;;;;;;5016890;28;20041;-34
2021/06/10 04:38:30;;;;;;;22.13;12.95;;;19.20;79.50;;;;;;5016421;28;20038;-35
2021/06/10 04:40:56;;;;;;;19.17;13.85;;;19.20;79.60;;;;;;5016720;28;20307;-38
2021/06/10 04:43:22;;;;;;;14.88;12.52;;;19.20;79.70;;;;;;5016058;28;20033;-37
2021/06/10 04:45:47;;;;;;;13.93;12.50;;;19.20;79.80;;;;;;5016702;28;20033;-34
2021/06/10 04:48:13;;;;;;;18.08;13.27;;;19.30;79.80;;;;;;5031400;28;20025;-37
2021/06/10 04:50:39;;;;;;;24.00;14.43;;;19.30;79.90;;;;;;5016281;28;20092;-35
2021/06/10 04:53:05;;;;;;;20.60;14.30;;;19.40;79.80;;;;;;5016049;28;20028;-39
2021/06/10 04:55:31;;;;;;;17.65;11.93;;;19.40;79.40;;;;;;5016086;28;20345;-42
2021/06/10 04:57:57;;;;;;;14.95;12.32;;;19.40;79.30;;;;;;5016023;28;20030;-38
2021/06/10 05:00:23;;;;;;;17.92;12.13;;;19.40;79.50;;;;;;5016076;28;20322;-34
2021/06/10 05:02:48;;;;;;;18.83;14.15;;;19.50;79.50;;;;;;5015885;28;20033;-35
2021/06/10 05:05:14;;;;;;;25.60;15.00;;;19.60;79.40;;;;;;5016207;28;20034;-39
2021/06/10 05:07:40;;;;;;;14.43;12.35;;;19.60;79.20;;;;;;5020776;28;20121;-40
2021/06/10 05:10:06;;;;;;;15.82;12.95;;;19.60;79.10;;;;;;5035324;28;20057;-37
2021/06/10 05:12:32;;;;;;;14.95;12.82;;;19.70;78.90;;;;;;5036005;28;20108;-34
2021/06/10 05:14:58;;;;;;;14.07;12.65;;;19.70;79.00;;;;;;5035702;28;20489;-34
2021/06/10 05:17:24;;;;;;;14.43;11.50;;;19.80;78.80;;;;;;5035175;28;20102;-35
2021/06/10 05:19:49;;;;;;;14.40;12.05;;;19.90;78.70;;;;;;5036075;28;20025;-35
2021/06/10 05:22:15;;;;;;;15.98;12.90;;;19.90;78.40;;;;;;5035594;28;20040;-35
2021/06/10 05:24:41;;;;;;;15.38;13.20;;;20.00;78.20;;;;;;5035457;28;20025;-34
2021/06/10 05:27:09;;;;;;;13.63;12.23;;;20.10;77.90;;;;;;5035387;28;20471;-34
2021/06/10 05:29:35;;;;;;;21.75;14.57;;;20.10;77.80;;;;;;5035656;28;20453;-35
2021/06/10 05:32:01;;;;;;;14.00;12.48;;;20.20;77.60;;;;;;5035561;28;20088;-37
2021/06/10 05:34:27;;;;;;;15.25;11.98;;;20.30;77.60;;;;;;5035820;28;20029;-35
2021/06/10 05:36:52;;;;;;;15.98;14.10;;;20.30;77.30;;;;;;5035520;28;20047;-35
2021/06/10 05:39:18;;;;;;;18.23;14.90;;;20.40;76.90;;;;;;5035193;28;20026;-35
2021/06/10 05:41:44;;;;;;;17.77;12.90;;;20.40;76.70;;;;;;5035388;28;20037;-37
2021/06/10 05:44:10;;;;;;;14.95;12.20;;;20.40;76.50;;;;;;5035478;28;20091;-35
2021/06/10 05:46:36;;;;;;;19.08;13.18;;;20.40;76.60;;;;;;5034951;28;20124;-38
2021/06/10 05:49:01;;;;;;;17.02;13.23;;;20.50;76.40;;;;;;5035294;28;20065;-38
2021/06/10 05:51:27;;;;;;;15.52;12.25;;;20.50;76.40;;;;;;5035253;28;20029;-35
2021/06/10 05:53:53;;;;;;;14.50;11.98;;;20.60;76.20;;;;;;5050522;28;20038;-37
2021/06/10 05:56:18;;;;;;;18.27;12.80;;;20.60;75.90;;;;;;5034711;28;20026;-34
2021/06/10 05:58:44;;;;;;;17.92;12.95;;;20.70;75.90;;;;;;5034811;28;20144;-38
2021/06/10 06:01:10;;;;;;;18.17;11.65;;;20.70;76.00;;;;;;5034988;28;20033;-34
2021/06/10 06:03:35;;;;;;;16.55;13.13;;;20.70;76.10;;;;;;5034478;28;20029;-34
2021/06/10 06:06:01;;;;;;;15.90;13.15;;;20.80;76.00;;;;;;5035197;28;20022;-39
2021/06/10 06:08:27;;;;;;;16.45;12.30;;;20.80;75.60;;;;;;5034501;28;20042;-34
2021/06/10 06:10:55;;;;;;;20.63;15.07;;;20.90;75.40;;;;;;5030074;28;20034;-35
2021/06/10 06:13:24;;;;;;;14.90;12.60;;;20.90;74.90;;;;;;5034340;28;20029;-34
2021/06/10 06:16:00;;;;;;;17.45;13.55;;;21.00;74.80;;;;;;5034868;28;20037;-37
2021/06/10 06:18:25;;;;;;;16.23;14.50;;;21.00;74.80;;;;;;5049439;28;20441;-35
2021/06/10 06:20:52;;;;;;;14.43;12.30;;;21.10;74.50;;;;;;5034466;28;20079;-39
2021/06/10 06:23:18;;;;;;;15.35;13.45;;;21.10;74.70;;;;;;5037654;28;20026;-38
2021/06/10 06:25:43;;;;;;;16.08;14.38;;;21.10;74.40;;;;;;5038461;28;20333;-38
2021/06/10 06:28:09;;;;;;;18.52;15.55;;;21.10;74.20;;;;;;5037881;28;20317;-38
2021/06/10 06:30:35;;;;;;;18.05;14.35;;;21.10;74.20;;;;;;5038446;28;20037;-37
2021/06/10 06:33:01;;;;;;;15.90;13.77;;;21.20;74.20;;;;;;5037802;28;20108;-35
2021/06/10 06:35:26;;;;;;;20.15;16.25;;;21.20;74.30;;;;;;5038121;28;20026;-43
2021/06/10 06:37:52;;;;;;;17.52;14.63;;;21.20;74.00;;;;;;5037937;28;20026;-34
2021/06/10 06:40:24;;;;;;;17.83;12.50;;;21.20;74.10;;;;;;5038031;28;20034;-38
2021/06/10 06:42:49;;;;;;;17.80;14.73;;;21.20;74.20;;;;;;5037990;28;20041;-35
2021/06/10 06:45:15;;;;;;;16.20;13.98;;;21.30;74.30;;;;;;5037761;28;20521;-35
2021/06/10 06:47:41;;;;;;;17.40;14.20;;;21.30;74.40;;;;;;5037897;28;20040;-38
2021/06/10 06:50:07;;;;;;;23.13;19.77;;;21.40;73.40;;;;;;5037395;28;20021;-38
2021/06/10 06:52:32;;;;;;;16.58;13.63;;;21.50;74.00;;;;;;5038018;28;20037;-38
2021/06/10 06:54:58;;;;;;;20.17;14.70;;;21.60;74.00;;;;;;5038056;28;20041;-37
2021/06/10 06:57:24;;;;;;;12.43;10.68;;;21.70;74.40;;;;;;5053085;28;20132;-34
2021/06/10 06:59:49;;;;;;;14.93;12.02;;;21.70;73.30;;;;;;5037951;28;20025;-37
2021/06/10 07:02:15;;;;;;;13.77;12.13;;;21.80;73.20;;;;;;5036766;28;20108;-35
2021/06/10 07:04:40;;;;;;;15.52;11.88;;;21.80;72.60;;;;;;5037913;28;20440;-35
2021/06/10 07:07:06;;;;;;;13.50;12.10;;;21.90;72.60;;;;;;5037570;28;20424;-38
2021/06/10 07:09:33;;;;;;;12.48;10.63;;;22.00;72.50;;;;;;5038246;28;20029;-38
2021/06/10 07:11:59;;;;;;;16.10;12.30;;;22.10;72.30;;;;;;5036867;28;20040;-34
2021/06/10 07:14:24;;;;;;;15.82;11.20;;;22.10;71.90;;;;;;5037513;28;20030;-35
2021/06/10 07:16:50;;;;;;;13.20;11.60;;;22.30;71.50;;;;;;5036846;28;20060;-34
2021/06/10 07:19:16;;;;;;;13.23;11.90;;;22.30;71.20;;;;;;5037796;28;20374;-35
2021/06/10 07:21:49;;;;;;;20.77;13.15;;;22.40;71.00;;;;;;5037303;28;20038;-37
2021/06/10 07:24:15;;;;;;;13.07;11.15;;;22.50;70.40;;;;;;5037647;28;20063;-37
2021/06/10 07:26:43;;;;;;;12.63;10.43;;;22.50;70.20;;;;;;5037281;28;20060;-35
2021/06/10 07:29:10;;;;;;;11.98;10.50;;;22.50;70.30;;;;;;5037740;28;20033;-35
2021/06/10 07:31:35;;;;;;;11.63;10.48;;;22.60;70.00;;;;;;5036958;28;20045;-35
2021/06/10 07:34:04;;;;;;;15.32;12.02;;;22.60;70.10;;;;;;5036976;28;20022;-38
2021/06/10 07:36:30;;;;;;;12.85;11.55;;;22.70;70.10;;;;;;5036961;28;20055;-38
2021/06/10 07:38:56;;;;;;;13.15;10.60;;;22.70;69.70;;;;;;5037208;28;20021;-38
2021/06/10 07:41:21;;;;;;;13.15;11.43;;;22.80;69.80;;;;;;5036916;28;20060;-35
2021/06/10 07:43:47;;;;;;;12.15;10.85;;;22.80;69.00;;;;;;5036982;28;20080;-37
2021/06/10 07:46:13;;;;;;;14.57;11.13;;;22.80;68.90;;;;;;5036754;28;20064;-41
2021/06/10 07:48:39;;;;;;;16.75;11.15;;;22.90;68.70;;;;;;5036853;28;20029;-38
2021/06/10 07:51:06;;;;;;;13.80;10.82;;;22.90;68.70;;;;;;5036923;28;20029;-37
2021/06/10 07:53:36;;;;;;;12.52;9.43;;;23.00;68.40;;;;;;5036805;28;20060;-38
2021/06/10 07:56:04;;;;;;;;;;;23.10;68.20;;;;;;5037668;28;20034;-35
2021/06/10 07:58:31;;;;;;;10.77;9.68;;;23.10;68.30;;;;;;5036424;28;19906;-39
2021/06/10 08:00:57;;;;;;;10.65;9.00;;;23.10;68.40;;;;;;5036720;28;20044;-38
2021/06/10 08:03:23;;;;;;;8.85;7.88;;;23.20;68.30;;;;;;5036664;28;20041;-38
2021/06/10 08:05:50;;;;;;;9.10;8.10;;;23.20;67.30;;;;;;5036997;28;20409;-34
2021/06/10 08:08:16;;;;;;;7.93;7.00;;;23.30;65.70;;;;;;5036184;28;20025;-35
2021/06/10 08:10:42;;;;;;;10.05;8.48;;;23.20;65.80;;;;;;5036341;28;20133;-38
2021/06/10 08:13:09;;;;;;;8.95;7.97;;;23.30;66.00;;;;;;5036595;28;20461;-39
2021/06/10 08:15:35;;;;;;;10.10;8.13;;;23.30;66.10;;;;;;5036606;28;20025;-37
2021/06/10 08:18:02;;;;;;;12.38;8.95;;;23.30;66.10;;;;;;5035635;28;20050;-39
2021/06/10 08:20:30;;;;;;;10.63;8.35;;;23.40;65.80;;;;;;5051824;28;20037;-38
2021/06/10 08:23:00;;;;;;;10.10;8.48;;;23.40;65.70;;;;;;5035595;28;20037;-38
2021/06/10 08:25:30;;;;;;;9.60;8.70;;;23.40;65.40;;;;;;5036233;28;20405;-39
2021/06/10 08:27:57;;;;;;;10.38;8.98;;;23.40;64.60;;;;;;5036129;28;20042;-35
2021/06/10 08:30:23;;;;;;;11.93;8.13;;;23.40;64.80;;;;;;5036173;28;20413;-34
2021/06/10 08:32:49;;;;;;;11.23;8.35;;;23.40;65.20;;;;;;5051467;28;20037;-35
2021/06/10 08:35:15;;;;;;;9.10;7.78;;;23.40;65.00;;;;;;5035965;28;20022;-38
2021/06/10 08:37:42;;;;;;;10.55;8.18;;;23.40;65.10;;;;;;5035314;28;20176;-39
2021/06/10 08:40:09;;;;;;;8.27;7.40;;;23.30;65.30;;;;;;5036483;28;20044;-35
2021/06/10 08:42:37;;;;;;;9.82;7.55;;;23.30;65.80;;;;;;5036452;28;20029;-34
2021/06/10 08:45:15;;;;;;;11.23;6.93;;;23.30;65.60;;;;;;5035294;28;20026;-39
2021/06/10 08:47:43;;;;;;;8.25;7.45;;;23.40;65.10;;;;;;5035881;28;20409;-34
2021/06/10 08:50:12;;;;;;;8.75;7.00;;;23.40;64.10;;;;;;5036407;28;20421;-38
2021/06/10 08:52:39;;;;;;;8.80;6.22;;;23.40;64.50;;;;;;5036084;28;20049;-39
2021/06/10 08:55:06;;;;;;;10.02;6.30;;;23.50;64.10;;;;;;5036209;28;20360;-39
2021/06/10 08:57:32;;;;;;;7.93;6.13;;;23.50;64.30;;;;;;5036031;28;20059;-35
2021/06/10 08:59:57;;;;;;;5.80;5.25;;;23.50;63.80;;;;;;5035519;28;20038;-38
2021/06/10 09:02:23;;;;;;;9.60;6.18;;;23.50;63.60;;;;;;5035135;28;20037;-39
2021/06/10 09:04:49;;;;;;;8.35;6.47;;;23.50;63.00;;;;;;5035281;28;20321;-35
2021/06/10 09:07:14;;;;;;;10.60;6.50;;;23.60;63.30;;;;;;5035719;28;20069;-39
2021/06/10 09:09:42;;;;;;;10.77;6.55;;;23.60;63.40;;;;;;5036105;28;20038;-39
2021/06/10 09:12:09;;;;;;;9.48;5.95;;;23.70;63.40;;;;;;5035379;28;20060;-39
2021/06/10 09:14:57;;;;;;;9.02;5.55;;;23.70;63.00;;;;;;5035525;28;20516;-38
2021/06/10 09:17:34;;;;;;;6.60;5.45;;;23.80;62.30;;;;;;5034913;28;20457;-39
2021/06/10 09:20:01;;;;;;;6.35;5.65;;;23.90;62.00;;;;;;5035389;28;20064;-39
2021/06/10 09:22:33;;;;;;;5.97;5.20;;;23.90;62.00;;;;;;5035765;28;20049;-38
2021/06/10 09:25:09;;;;;;;15.02;5.10;;;24.00;61.60;;;;;;5035507;28;20436;-39
2021/06/10 09:27:52;;;;;;;9.23;5.40;;;24.10;60.70;;;;;;5035406;28;20039;-39
2021/06/10 09:30:41;;;;;;;5.80;4.93;;;24.20;60.70;;;;;;5035745;28;20033;-38
2021/06/10 09:33:13;;;;;;;7.60;4.55;;;24.20;60.30;;;;;;5034850;28;20260;-38
2021/06/10 09:35:41;;;;;;;6.03;4.90;;;24.30;60.40;;;;;;5035682;28;20033;-35
2021/06/10 09:38:10;;;;;;;7.50;5.05;;;24.40;60.40;;;;;;5034904;28;20037;-35
2021/06/10 09:40:36;;;;;;;9.63;5.22;;;24.50;59.80;;;;;;5035230;28;20091;-39
2021/06/10 09:43:03;;;;;;;6.97;4.57;;;24.50;59.50;;;;;;5035073;28;20045;-40
2021/06/10 09:45:32;;;;;;;8.00;5.15;;;24.60;59.40;;;;;;5035293;28;20025;-40
2021/06/10 09:48:04;;;;;;;5.47;4.97;;;24.70;58.90;;;;;;5034841;28;20044;-37
2021/06/10 09:50:30;;;;;;;9.23;5.82;;;24.80;59.30;;;;;;5035256;28;20084;-40
2021/06/10 09:53:13;;;;;;;8.77;5.03;;;24.80;59.20;;;;;;5034660;28;20034;-37
2021/06/10 09:55:45;;;;;;;10.32;6.32;;;24.90;59.10;;;;;;5035861;28;20416;-35
2021/06/10 09:58:14;;;;;;;8.23;6.72;;;24.90;58.90;;;;;;5038860;28;20037;-35
2021/06/10 10:00:45;;;;;;;7.40;6.30;;;25.00;59.10;;;;;;5039667;28;20040;-38
2021/06/10 10:03:32;;;;;;;6.32;5.72;;;25.00;59.00;;;;;;5033115;28;20084;-37
2021/06/10 10:06:04;;;;;;;6.60;5.90;;;24.90;58.50;;;;;;5039301;28;20037;-35
2021/06/10 10:08:31;;;;;;;7.10;6.40;;;24.90;58.60;;;;;;5038526;28;20091;-35
2021/06/10 10:10:58;;;;;;;7.57;6.72;;;24.90;59.10;;;;;;5039243;28;20034;-35
2021/06/10 10:13:26;;;;;;;6.90;6.20;;;25.00;59.10;;;;;;5037361;28;20117;-37
2021/06/10 10:15:52;;;;;;;6.88;6.18;;;25.00;58.90;;;;;;5039139;28;20103;-35
2021/06/10 10:18:19;;;;;;;9.52;6.68;;;25.00;59.00;;;;;;5037879;28;20041;-40
2021/06/10 10:20:45;;;;;;;9.02;5.68;;;25.00;59.00;;;;;;5038816;28;20033;-38
2021/06/10 10:23:11;;;;;;;6.10;5.50;;;25.00;58.70;;;;;;5037856;28;20033;-35
2021/06/10 10:25:37;;;;;;;6.60;6.00;;;25.00;58.40;;;;;;5038938;28;20033;-39
2021/06/10 10:28:12;;;;;;;7.20;6.50;;;25.00;58.40;;;;;;5037659;28;20120;-36
2021/06/10 10:30:42;;;;;;;7.25;6.00;;;25.10;58.20;;;;;;5054156;28;20410;-36
2021/06/10 10:33:20;;;;;;;11.18;6.93;;;25.10;58.10;;;;;;5037785;28;20072;-39
2021/06/10 10:35:53;;;;;;;9.68;7.30;;;25.20;58.30;;;;;;5038768;28;20337;-38
2021/06/10 10:38:31;;;;;;;8.07;6.68;;;25.20;58.30;;;;;;5052891;28;20057;-38
2021/06/10 10:41:03;;;;;;;7.80;6.60;;;25.20;58.10;;;;;;5038645;28;20389;-40
2021/06/10 10:43:30;;;;;;;8.98;6.25;;;25.30;58.50;;;;;;5037946;28;20406;-36
2021/06/10 10:46:20;;;;;;;6.40;5.80;;;25.40;57.90;;;;;;5038476;28;20044;-43
2021/06/10 10:48:50;;;;;;;9.77;6.07;;;25.50;56.90;;;;;;5053634;28;20409;-36
2021/06/10 10:51:33;;;;;;;5.95;5.35;;;25.50;56.30;;;;;;5038377;28;20067;-36
2021/06/10 10:54:01;;;;;;;7.60;5.78;;;25.50;56.80;;;;;;5038186;28;20032;-36
2021/06/10 10:56:41;;;;;;;7.30;6.00;;;25.50;56.40;;;;;;5038151;28;20099;-38
2021/06/10 10:59:19;;;;;;;8.23;5.80;;;25.50;56.60;;;;;;5037698;28;20421;-36
2021/06/10 11:02:08;;;;;;;6.20;4.50;;;25.50;57.10;;;;;;5037825;28;20270;-36
2021/06/10 11:04:51;;;;;;;5.05;4.55;;;25.60;56.50;;;;;;5038290;28;20083;-39
2021/06/10 11:07:36;;;;;;;5.10;4.28;;;25.60;55.90;;;;;;5036805;28;20041;-36
2021/06/10 11:10:05;;;;;;;5.13;4.63;;;25.70;55.50;;;;;;5037954;28;20018;-36
2021/06/10 11:12:49;;;;;;;4.90;3.75;;;25.70;55.40;;;;;;5037813;28;20405;-40
2021/06/10 11:15:25;;;;;;;4.50;4.10;;;25.70;53.50;;;;;;5037796;28;20021;-36
2021/06/10 11:17:58;;;;;;;4.53;3.92;;;25.80;53.60;;;;;;5036622;28;20463;-36
2021/06/10 11:20:44;;;;;;;10.82;4.10;;;25.80;53.60;;;;;;5037591;28;20444;-36
2021/06/10 11:23:18;;;;;;;5.50;3.20;;;25.80;53.40;;;;;;5036546;28;20041;-36
2021/06/10 11:25:44;;;;;;;4.60;3.45;;;25.80;53.70;;;;;;5037920;28;20038;-36
2021/06/10 11:28:16;;;;;;;4.90;3.75;;;25.90;53.90;;;;;;5036462;28;20048;-37
2021/06/10 11:30:43;;;;;;;10.75;4.40;;;26.00;53.60;;;;;;5037529;28;20030;-36
2021/06/10 11:33:16;;;;;;;5.07;3.97;;;25.90;53.90;;;;;;5036720;28;20110;-36
2021/06/10 11:35:53;;;;;;;5.03;4.32;;;25.90;54.30;;;;;;5037467;28;20152;-36
2021/06/10 11:38:23;;;;;;;7.72;6.00;;;25.90;54.80;;;;;;5036927;28;20021;-36
2021/06/10 11:41:14;;;;;;;6.60;5.53;;;25.80;55.30;;;;;;5037389;28;20045;-36
2021/06/10 11:43:42;;;;;;;10.48;6.88;;;25.70;55.70;;;;;;5037008;28;20034;-36
2021/06/10 11:46:11;;;;;;;8.20;5.82;;;25.60;55.90;;;;;;5037353;28;20456;-36
2021/06/10 11:48:44;;;;;;;8.88;6.15;;;25.50;56.30;;;;;;5037094;28;20032;-36
2021/06/10 11:51:20;;;;;;;8.57;5.80;;;25.50;56.60;;;;;;5036992;28;20034;-36
2021/06/10 11:53:46;;;;;;;6.10;5.28;;;25.40;56.70;;;;;;5036813;28;20440;-36
2021/06/10 11:56:12;;;;;;;11.18;6.10;;;25.30;56.80;;;;;;5036489;28;20037;-36
2021/06/10 11:58:37;;;;;;;9.80;6.10;;;25.30;57.20;;;;;;5036071;28;20030;-36
2021/06/10 12:01:11;;;;;;;9.93;5.78;;;25.30;57.30;;;;;;5036984;28;20037;-36
2021/06/10 12:03:39;;;;;;;9.15;5.82;;;25.20;57.20;;;;;;5036275;28;20057;-36
2021/06/10 12:06:10;;;;;;;8.90;6.78;;;25.20;57.40;;;;;;5036965;28;20045;-36
2021/06/10 12:08:37;;;;;;;9.45;6.05;;;25.20;57.50;;;;;;5036523;28;20033;-36
2021/06/10 12:11:20;;;;;;;6.53;5.82;;;25.20;57.40;;;;;;5036627;28;20029;-36
2021/06/10 12:13:52;;;;;;;9.68;6.38;;;25.20;57.50;;;;;;5036719;28;20097;-36
2021/06/10 12:16:19;;;;;;;6.70;5.38;;;25.30;57.50;;;;;;5036283;28;20033;-36
2021/06/10 12:18:47;;;;;;;9.05;6.38;;;25.30;57.50;;;;;;5035428;28;20053;-36
2021/06/10 12:21:23;;;;;;;8.82;5.22;;;25.30;57.40;;;;;;5036172;28;20044;-36
2021/06/10 12:23:51;;;;;;;7.43;5.93;;;25.30;57.30;;;;;;5036237;28;20045;-36
2021/06/10 12:26:28;;;;;;;7.00;5.82;;;25.30;57.00;;;;;;5036432;28;20337;-35
2021/06/10 12:28:56;;;;;;;13.48;6.97;;;25.40;57.30;;;;;;5036030;28;20034;-36
2021/06/10 12:31:32;;;;;;;9.02;5.40;;;25.40;57.20;;;;;;5036312;28;20417;-36
2021/06/10 12:34:04;;;;;;;14.00;5.20;;;25.40;56.90;;;;;;5036018;28;20022;-36
2021/06/10 12:36:44;;;;;;;10.10;5.22;;;25.50;57.00;;;;;;5036061;28;20401;-37
2021/06/10 12:39:11;;;;;;;;;;;25.40;56.80;;;;;;5036024;28;20026;-37
2021/06/10 12:41:48;;;;;;;17.02;4.18;;;25.40;56.70;;;;;;5036159;28;20308;-37
2021/06/10 12:44:31;;;;;;;7.18;3.97;;;25.30;55.70;;;;;;5035853;28;20168;-37